sensor_id;sensor_type;location;lat;lon;timestamp;pressure;altitude;pressure_sealevel;temperature;humidity
64853;BME280;56050;55.558;-4.644;2023-03-14T00:01:49;99304.97;;;5.06;68.84
64853;BME280;56050;55.558;-4.644;2023-03-14T00:04:15;99312.97;;;5.06;68.44
64853;BME280;56050;55.558;-4.644;2023-03-14T00:06:40;99317.59;;;5.02;67.99
64853;BME280;56050;55.558;-4.644;2023-03-14T00:09:06;99335.84;;;5.00;68.41
64853;BME280;56050;55.558;-4.644;2023-03-14T00:11:31;99346.16;;;4.98;67.88
64853;BME280;56050;55.558;-4.644;2023-03-14T00:13:57;99361.78;;;4.93;67.54
64853;BME280;56050;55.558;-4.644;2023-03-14T00:16:22;99364.06;;;4.87;67.71
64853;BME280;56050;55.558;-4.644;2023-03-14T00:18:48;99378.56;;;4.83;67.56
64853;BME280;56050;55.558;-4.644;2023-03-14T00:21:14;99380.06;;;4.77;67.14
64853;BME280;56050;55.558;-4.644;2023-03-14T00:23:40;99393.03;;;4.71;67.15
64853;BME280;56050;55.558;-4.644;2023-03-14T00:26:10;99389.97;;;4.65;67.09
64853;BME280;56050;55.558;-4.644;2023-03-14T00:28:36;99396.44;;;4.61;67.01
64853;BME280;56050;55.558;-4.644;2023-03-14T00:31:03;99398.31;;;4.57;66.83
64853;BME280;56050;55.558;-4.644;2023-03-14T00:33:29;99402.91;;;4.53;67.33
64853;BME280;56050;55.558;-4.644;2023-03-14T00:35:55;99422.31;;;4.50;66.85
64853;BME280;56050;55.558;-4.644;2023-03-14T00:38:21;99424.97;;;4.46;67.41
64853;BME280;56050;55.558;-4.644;2023-03-14T00:40:47;99423.06;;;4.43;67.35
64853;BME280;56050;55.558;-4.644;2023-03-14T00:43:12;99417.34;;;4.41;67.47
64853;BME280;56050;55.558;-4.644;2023-03-14T00:45:37;99432.19;;;4.42;67.70
64853;BME280;56050;55.558;-4.644;2023-03-14T00:48:03;99441.34;;;4.41;67.54
64853;BME280;56050;55.558;-4.644;2023-03-14T00:50:28;99445.50;;;4.39;67.55
64853;BME280;56050;55.558;-4.644;2023-03-14T00:52:54;99448.16;;;4.35;67.65
64853;BME280;56050;55.558;-4.644;2023-03-14T00:55:19;99442.06;;;4.35;67.72
64853;BME280;56050;55.558;-4.644;2023-03-14T00:57:45;99450.44;;;4.33;67.56
64853;BME280;56050;55.558;-4.644;2023-03-14T01:00:10;99465.66;;;4.33;67.68
64853;BME280;56050;55.558;-4.644;2023-03-14T01:02:37;99470.97;;;4.29;67.58
64853;BME280;56050;55.558;-4.644;2023-03-14T01:05:03;99482.38;;;4.26;67.72
64853;BME280;56050;55.558;-4.644;2023-03-14T01:07:28;99490.00;;;4.24;67.79
64853;BME280;56050;55.558;-4.644;2023-03-14T01:09:54;99499.50;;;4.22;67.69
64853;BME280;56050;55.558;-4.644;2023-03-14T01:12:19;99502.91;;;4.19;67.76
64853;BME280;56050;55.558;-4.644;2023-03-14T01:14:45;99502.91;;;4.19;67.83
64853;BME280;56050;55.558;-4.644;2023-03-14T01:17:10;99513.19;;;4.20;67.97
64853;BME280;56050;55.558;-4.644;2023-03-14T01:19:36;99505.97;;;4.21;67.77
64853;BME280;56050;55.558;-4.644;2023-03-14T01:22:01;99506.72;;;4.21;67.94
64853;BME280;56050;55.558;-4.644;2023-03-14T01:24:28;99522.72;;;4.21;67.85
64853;BME280;56050;55.558;-4.644;2023-03-14T01:26:53;99525.38;;;4.21;67.82
64853;BME280;56050;55.558;-4.644;2023-03-14T01:29:18;99524.22;;;4.19;67.77
64853;BME280;56050;55.558;-4.644;2023-03-14T01:31:44;99532.59;;;4.17;67.84
64853;BME280;56050;55.558;-4.644;2023-03-14T01:34:09;99540.56;;;4.13;67.49
64853;BME280;56050;55.558;-4.644;2023-03-14T01:36:35;99543.94;;;4.07;67.25
64853;BME280;56050;55.558;-4.644;2023-03-14T01:39:00;99565.59;;;3.98;67.02
64853;BME280;56050;55.558;-4.644;2023-03-14T01:41:26;99567.44;;;3.91;66.81
64853;BME280;56050;55.558;-4.644;2023-03-14T01:43:52;99572.31;;;3.82;66.71
64853;BME280;56050;55.558;-4.644;2023-03-14T01:46:41;99574.19;;;3.78;66.90
64853;BME280;56050;55.558;-4.644;2023-03-14T01:51:38;99579.44;;;3.71;67.17
64853;BME280;56050;55.558;-4.644;2023-03-14T01:54:13;99584.78;;;3.71;67.49
64853;BME280;56050;55.558;-4.644;2023-03-14T01:56:43;99595.47;;;3.74;67.39
64853;BME280;56050;55.558;-4.644;2023-03-14T01:59:10;99599.28;;;3.77;67.59
64853;BME280;56050;55.558;-4.644;2023-03-14T02:01:37;99604.66;;;3.80;67.64
64853;BME280;56050;55.558;-4.644;2023-03-14T02:04:05;99610.38;;;3.82;67.50
64853;BME280;56050;55.558;-4.644;2023-03-14T02:06:50;99617.59;;;3.82;67.56
64853;BME280;56050;55.558;-4.644;2023-03-14T02:09:16;99609.25;;;3.83;67.63
64853;BME280;56050;55.558;-4.644;2023-03-14T02:11:42;99621.78;;;3.83;67.45
64853;BME280;56050;55.558;-4.644;2023-03-14T02:14:16;99622.53;;;3.80;67.44
64853;BME280;56050;55.558;-4.644;2023-03-14T02:16:44;99623.25;;;3.77;67.29
64853;BME280;56050;55.558;-4.644;2023-03-14T02:19:10;99627.81;;;3.76;67.42
64853;BME280;56050;55.558;-4.644;2023-03-14T02:21:54;99632.78;;;3.78;67.37
64853;BME280;56050;55.558;-4.644;2023-03-14T02:24:40;99626.31;;;3.79;67.35
64853;BME280;56050;55.558;-4.644;2023-03-14T02:27:10;99628.97;;;3.79;67.46
64853;BME280;56050;55.558;-4.644;2023-03-14T02:29:40;99630.13;;;3.78;67.29
64853;BME280;56050;55.558;-4.644;2023-03-14T02:32:10;99631.63;;;3.79;67.26
64853;BME280;56050;55.558;-4.644;2023-03-14T02:34:36;99632.78;;;3.78;67.34
64853;BME280;56050;55.558;-4.644;2023-03-14T02:37:02;99631.25;;;3.77;67.37
64853;BME280;56050;55.558;-4.644;2023-03-14T02:39:35;99636.94;;;3.75;67.55
64853;BME280;56050;55.558;-4.644;2023-03-14T02:42:01;99648.69;;;3.71;67.42
64853;BME280;56050;55.558;-4.644;2023-03-14T02:44:27;99651.34;;;3.67;67.30
64853;BME280;56050;55.558;-4.644;2023-03-14T02:46:53;99649.75;;;3.63;67.48
64853;BME280;56050;55.558;-4.644;2023-03-14T02:49:18;99655.03;;;3.59;67.44
64853;BME280;56050;55.558;-4.644;2023-03-14T02:51:45;99662.22;;;3.55;67.35
64853;BME280;56050;55.558;-4.644;2023-03-14T02:54:11;99673.22;;;3.50;67.31
64853;BME280;56050;55.558;-4.644;2023-03-14T02:56:36;99663.63;;;3.45;67.27
64853;BME280;56050;55.558;-4.644;2023-03-14T02:59:03;99675.38;;;3.41;67.18
64853;BME280;56050;55.558;-4.644;2023-03-14T03:01:29;99682.91;;;3.35;67.36
64853;BME280;56050;55.558;-4.644;2023-03-14T03:03:54;99697.31;;;3.31;67.29
64853;BME280;56050;55.558;-4.644;2023-03-14T03:06:20;99707.16;;;3.27;67.33
64853;BME280;56050;55.558;-4.644;2023-03-14T03:08:45;99706.34;;;3.23;67.37
64853;BME280;56050;55.558;-4.644;2023-03-14T03:11:11;99712.75;;;3.18;67.50
64853;BME280;56050;55.558;-4.644;2023-03-14T03:13:36;99712.66;;;3.11;67.26
64853;BME280;56050;55.558;-4.644;2023-03-14T03:16:02;99721.31;;;3.05;67.28
64853;BME280;56050;55.558;-4.644;2023-03-14T03:18:28;99713.25;;;2.97;67.37
64853;BME280;56050;55.558;-4.644;2023-03-14T03:20:53;99716.97;;;2.93;67.64
64853;BME280;56050;55.558;-4.644;2023-03-14T03:23:19;99723.38;;;2.88;67.61
64853;BME280;56050;55.558;-4.644;2023-03-14T03:25:49;99724.44;;;2.84;67.52
64853;BME280;56050;55.558;-4.644;2023-03-14T03:28:15;99722.84;;;2.79;67.42
64853;BME280;56050;55.558;-4.644;2023-03-14T03:30:41;99725.81;;;2.74;67.58
64853;BME280;56050;55.558;-4.644;2023-03-14T03:33:06;99740.19;;;2.70;67.52
64853;BME280;56050;55.558;-4.644;2023-03-14T03:35:32;99730.97;;;2.64;67.56
64853;BME280;56050;55.558;-4.644;2023-03-14T03:37:57;99733.16;;;2.58;67.51
64853;BME280;56050;55.558;-4.644;2023-03-14T03:40:23;99745.63;;;2.54;67.55
64853;BME280;56050;55.558;-4.644;2023-03-14T03:42:48;99748.25;;;2.51;67.73
64853;BME280;56050;55.558;-4.644;2023-03-14T03:45:14;99750.06;;;2.47;67.89
64853;BME280;56050;55.558;-4.644;2023-03-14T03:47:39;99750.44;;;2.45;67.86
64853;BME280;56050;55.558;-4.644;2023-03-14T03:50:05;99747.72;;;2.42;67.73
64853;BME280;56050;55.558;-4.644;2023-03-14T03:52:31;99747.63;;;2.38;67.68
64853;BME280;56050;55.558;-4.644;2023-03-14T03:54:56;99744.16;;;2.34;67.66
64853;BME280;56050;55.558;-4.644;2023-03-14T03:57:22;99748.25;;;2.28;67.73
64853;BME280;56050;55.558;-4.644;2023-03-14T03:59:48;99749.31;;;2.23;67.78
64853;BME280;56050;55.558;-4.644;2023-03-14T04:02:13;99756.03;;;2.17;67.77
64853;BME280;56050;55.558;-4.644;2023-03-14T04:04:38;99757.84;;;2.13;67.83
64853;BME280;56050;55.558;-4.644;2023-03-14T04:07:04;99761.97;;;2.11;67.92
64853;BME280;56050;55.558;-4.644;2023-03-14T04:09:30;99761.91;;;2.07;68.01
64853;BME280;56050;55.558;-4.644;2023-03-14T04:11:55;99765.69;;;2.06;68.01
64853;BME280;56050;55.558;-4.644;2023-03-14T04:14:21;99762.63;;;2.04;67.99
64853;BME280;56050;55.558;-4.644;2023-03-14T04:16:47;99764.84;;;2.02;67.92
64853;BME280;56050;55.558;-4.644;2023-03-14T04:19:12;99758.03;;;2.01;68.14
64853;BME280;56050;55.558;-4.644;2023-03-14T04:21:38;99781.56;;;2.03;68.09
64853;BME280;56050;55.558;-4.644;2023-03-14T04:24:05;99781.22;;;2.04;68.27
64853;BME280;56050;55.558;-4.644;2023-03-14T04:26:31;99786.59;;;2.08;68.27
64853;BME280;56050;55.558;-4.644;2023-03-14T04:28:56;99784.78;;;2.12;68.24
64853;BME280;56050;55.558;-4.644;2023-03-14T04:31:22;99784.06;;;2.15;68.29
64853;BME280;56050;55.558;-4.644;2023-03-14T04:33:48;99791.34;;;2.18;68.09
64853;BME280;56050;55.558;-4.644;2023-03-14T04:36:14;99792.84;;;2.19;67.94
64853;BME280;56050;55.558;-4.644;2023-03-14T04:38:40;99798.25;;;2.22;68.02
64853;BME280;56050;55.558;-4.644;2023-03-14T04:41:05;99797.88;;;2.24;68.04
64853;BME280;56050;55.558;-4.644;2023-03-14T04:43:31;99802.50;;;2.27;68.06
64853;BME280;56050;55.558;-4.644;2023-03-14T04:45:57;99809.41;;;2.31;68.04
64853;BME280;56050;55.558;-4.644;2023-03-14T04:48:24;99811.41;;;2.38;68.19
64853;BME280;56050;55.558;-4.644;2023-03-14T04:50:50;99816.44;;;2.43;68.02
64853;BME280;56050;55.558;-4.644;2023-03-14T04:53:16;99831.75;;;2.50;68.05
64853;BME280;56050;55.558;-4.644;2023-03-14T04:55:46;99864.59;;;2.61;67.95
64853;BME280;56050;55.558;-4.644;2023-03-14T04:58:12;99893.81;;;2.80;69.56
64853;BME280;56050;55.558;-4.644;2023-03-14T05:00:37;99873.47;;;2.91;71.16
64853;BME280;56050;55.558;-4.644;2023-03-14T05:03:03;99889.38;;;2.87;72.26
64853;BME280;56050;55.558;-4.644;2023-03-14T05:05:28;99900.31;;;2.82;72.99
64853;BME280;56050;55.558;-4.644;2023-03-14T05:07:54;99899.97;;;2.84;73.62
64853;BME280;56050;55.558;-4.644;2023-03-14T05:10:19;99898.53;;;2.90;74.04
64853;BME280;56050;55.558;-4.644;2023-03-14T05:12:44;99908.13;;;2.94;74.49
64853;BME280;56050;55.558;-4.644;2023-03-14T05:15:10;99907.06;;;2.99;74.66
64853;BME280;56050;55.558;-4.644;2023-03-14T05:17:35;99901.03;;;3.02;74.54
64853;BME280;56050;55.558;-4.644;2023-03-14T05:20:01;99894.22;;;3.05;74.47
64853;BME280;56050;55.558;-4.644;2023-03-14T05:22:27;99900.47;;;3.16;74.65
64853;BME280;56050;55.558;-4.644;2023-03-14T05:24:52;99901.31;;;3.20;74.34
64853;BME280;56050;55.558;-4.644;2023-03-14T05:27:22;99915.09;;;3.25;74.67
64853;BME280;56050;55.558;-4.644;2023-03-14T05:29:47;99927.31;;;3.30;74.60
64853;BME280;56050;55.558;-4.644;2023-03-14T05:32:13;99925.06;;;3.32;74.69
64853;BME280;56050;55.558;-4.644;2023-03-14T05:34:38;99934.28;;;3.38;74.77
64853;BME280;56050;55.558;-4.644;2023-03-14T05:37:04;99937.81;;;3.45;74.94
64853;BME280;56050;55.558;-4.644;2023-03-14T05:39:29;99928.81;;;3.53;74.91
64853;BME280;56050;55.558;-4.644;2023-03-14T05:41:54;99930.78;;;3.56;74.77
64853;BME280;56050;55.558;-4.644;2023-03-14T05:44:21;99927.50;;;3.67;74.94
64853;BME280;56050;55.558;-4.644;2023-03-14T05:46:46;99940.53;;;3.72;74.47
64853;BME280;56050;55.558;-4.644;2023-03-14T05:49:11;99943.19;;;3.72;73.98
64853;BME280;56050;55.558;-4.644;2023-03-14T05:51:37;99942.41;;;3.71;73.78
64853;BME280;56050;55.558;-4.644;2023-03-14T05:54:02;99947.34;;;3.69;73.37
64853;BME280;56050;55.558;-4.644;2023-03-14T05:56:28;99954.47;;;3.62;72.67
64853;BME280;56050;55.558;-4.644;2023-03-14T05:58:53;99955.81;;;3.52;73.01
64853;BME280;56050;55.558;-4.644;2023-03-14T06:01:18;99978.53;;;3.46;73.13
64853;BME280;56050;55.558;-4.644;2023-03-14T06:03:44;99959.44;;;3.40;73.22
64853;BME280;56050;55.558;-4.644;2023-03-14T06:06:09;99972.28;;;3.35;73.40
64853;BME280;56050;55.558;-4.644;2023-03-14T06:08:35;99972.97;;;3.32;73.71
64853;BME280;56050;55.558;-4.644;2023-03-14T06:11:02;99970.69;;;3.30;73.82
64853;BME280;56050;55.558;-4.644;2023-03-14T06:13:28;99971.47;;;3.31;73.85
64853;BME280;56050;55.558;-4.644;2023-03-14T06:15:53;99977.13;;;3.29;74.06
64853;BME280;56050;55.558;-4.644;2023-03-14T06:18:19;99958.88;;;3.28;73.96
64853;BME280;56050;55.558;-4.644;2023-03-14T06:20:44;99971.31;;;3.24;74.14
64853;BME280;56050;55.558;-4.644;2023-03-14T06:23:10;99970.56;;;3.23;73.98
64853;BME280;56050;55.558;-4.644;2023-03-14T06:25:36;99968.31;;;3.25;73.99
64853;BME280;56050;55.558;-4.644;2023-03-14T06:28:02;99969.03;;;3.22;74.20
64853;BME280;56050;55.558;-4.644;2023-03-14T06:30:27;99976.66;;;3.24;74.27
64853;BME280;56050;55.558;-4.644;2023-03-14T06:32:53;99975.16;;;3.26;74.23
64853;BME280;56050;55.558;-4.644;2023-03-14T06:35:21;99974.84;;;3.28;74.59
64853;BME280;56050;55.558;-4.644;2023-03-14T06:37:46;99979.44;;;3.31;74.43
64853;BME280;56050;55.558;-4.644;2023-03-14T06:40:12;99979.91;;;3.36;74.35
64853;BME280;56050;55.558;-4.644;2023-03-14T06:42:42;99984.47;;;3.36;74.46
64853;BME280;56050;55.558;-4.644;2023-03-14T06:45:08;99977.59;;;3.35;74.38
64853;BME280;56050;55.558;-4.644;2023-03-14T06:47:34;99982.22;;;3.38;74.25
64853;BME280;56050;55.558;-4.644;2023-03-14T06:49:59;99985.72;;;3.42;74.04
64853;BME280;56050;55.558;-4.644;2023-03-14T06:52:24;99976.59;;;3.43;73.91
64853;BME280;56050;55.558;-4.644;2023-03-14T06:54:50;99983.94;;;3.49;73.66
64853;BME280;56050;55.558;-4.644;2023-03-14T06:57:15;99973.28;;;3.49;73.66
64853;BME280;56050;55.558;-4.644;2023-03-14T06:59:41;99984.00;;;3.53;73.59
64853;BME280;56050;55.558;-4.644;2023-03-14T07:02:10;99985.94;;;3.56;73.06
64853;BME280;56050;55.558;-4.644;2023-03-14T07:04:36;99981.78;;;3.59;73.16
64853;BME280;56050;55.558;-4.644;2023-03-14T07:07:02;99982.19;;;3.61;73.29
64853;BME280;56050;55.558;-4.644;2023-03-14T07:09:27;99994.03;;;3.63;73.17
64853;BME280;56050;55.558;-4.644;2023-03-14T07:11:53;99999.41;;;3.67;72.68
64853;BME280;56050;55.558;-4.644;2023-03-14T07:14:18;99998.72;;;3.70;72.67
64853;BME280;56050;55.558;-4.644;2023-03-14T07:16:43;99999.88;;;3.72;72.36
64853;BME280;56050;55.558;-4.644;2023-03-14T07:19:10;99998.41;;;3.75;72.40
64853;BME280;56050;55.558;-4.644;2023-03-14T07:21:35;99999.59;;;3.77;72.20
64853;BME280;56050;55.558;-4.644;2023-03-14T07:24:01;100012.97;;;3.81;72.26
64853;BME280;56050;55.558;-4.644;2023-03-14T07:26:26;100019.09;;;3.85;72.15
64853;BME280;56050;55.558;-4.644;2023-03-14T07:28:52;100022.59;;;3.89;71.67
64853;BME280;56050;55.558;-4.644;2023-03-14T07:31:17;100021.88;;;3.92;71.89
64853;BME280;56050;55.558;-4.644;2023-03-14T07:33:43;100026.91;;;3.97;71.66
64853;BME280;56050;55.558;-4.644;2023-03-14T07:36:09;100041.03;;;4.01;71.49
64853;BME280;56050;55.558;-4.644;2023-03-14T07:38:34;100038.06;;;4.06;71.48
64853;BME280;56050;55.558;-4.644;2023-03-14T07:41:01;100049.94;;;4.12;71.06
64853;BME280;56050;55.558;-4.644;2023-03-14T07:43:27;100063.78;;;4.21;70.81
64853;BME280;56050;55.558;-4.644;2023-03-14T07:45:52;100063.13;;;4.28;70.96
64853;BME280;56050;55.558;-4.644;2023-03-14T07:48:18;100079.22;;;4.35;70.37
64853;BME280;56050;55.558;-4.644;2023-03-14T07:50:44;100083.47;;;4.39;70.22
64853;BME280;56050;55.558;-4.644;2023-03-14T07:53:12;100067.53;;;4.43;70.17
64853;BME280;56050;55.558;-4.644;2023-03-14T07:55:39;100075.97;;;4.48;69.63
64853;BME280;56050;55.558;-4.644;2023-03-14T07:58:05;100084.38;;;4.50;70.12
64853;BME280;56050;55.558;-4.644;2023-03-14T08:00:31;100097.84;;;4.57;69.66
64853;BME280;56050;55.558;-4.644;2023-03-14T08:02:56;100108.13;;;4.59;69.98
64853;BME280;56050;55.558;-4.644;2023-03-14T08:05:22;100134.88;;;4.62;69.63
64853;BME280;56050;55.558;-4.644;2023-03-14T08:07:47;100111.63;;;4.63;69.19
64853;BME280;56050;55.558;-4.644;2023-03-14T08:10:13;100121.94;;;4.64;69.65
64853;BME280;56050;55.558;-4.644;2023-03-14T08:12:46;100131.53;;;4.69;69.20
64853;BME280;56050;55.558;-4.644;2023-03-14T08:15:11;100133.06;;;4.70;69.01
64853;BME280;56050;55.558;-4.644;2023-03-14T08:17:37;100131.88;;;4.67;69.27
64853;BME280;56050;55.558;-4.644;2023-03-14T08:20:02;100129.59;;;4.69;69.34
64853;BME280;56050;55.558;-4.644;2023-03-14T08:22:31;100151.38;;;4.71;68.97
64853;BME280;56050;55.558;-4.644;2023-03-14T08:24:57;100137.66;;;4.73;68.85
64853;BME280;56050;55.558;-4.644;2023-03-14T08:27:22;100138.03;;;4.71;68.68
64853;BME280;56050;55.558;-4.644;2023-03-14T08:29:48;100125.78;;;4.67;68.40
64853;BME280;56050;55.558;-4.644;2023-03-14T08:32:13;100134.09;;;4.62;68.69
64853;BME280;56050;55.558;-4.644;2023-03-14T08:34:38;100133.28;;;4.58;68.78
64853;BME280;56050;55.558;-4.644;2023-03-14T08:37:05;100133.22;;;4.54;69.17
64853;BME280;56050;55.558;-4.644;2023-03-14T08:39:30;100134.41;;;4.57;68.75
64853;BME280;56050;55.558;-4.644;2023-03-14T08:41:56;100142.34;;;4.53;68.78
64853;BME280;56050;55.558;-4.644;2023-03-14T08:44:21;100143.84;;;4.51;69.01
64853;BME280;56050;55.558;-4.644;2023-03-14T08:46:46;100140.03;;;4.52;68.99
64853;BME280;56050;55.558;-4.644;2023-03-14T08:49:12;100142.34;;;4.53;69.09
64853;BME280;56050;55.558;-4.644;2023-03-14T08:51:39;100140.09;;;4.55;68.75
64853;BME280;56050;55.558;-4.644;2023-03-14T08:54:05;100149.28;;;4.58;68.91
64853;BME280;56050;55.558;-4.644;2023-03-14T08:56:30;100148.19;;;4.62;68.98
64853;BME280;56050;55.558;-4.644;2023-03-14T08:58:55;100154.00;;;4.68;68.89
64853;BME280;56050;55.558;-4.644;2023-03-14T09:01:21;100164.00;;;4.74;68.40
64853;BME280;56050;55.558;-4.644;2023-03-14T09:03:49;100156.09;;;4.82;68.06
64853;BME280;56050;55.558;-4.644;2023-03-14T09:06:15;100168.72;;;4.85;68.58
64853;BME280;56050;55.558;-4.644;2023-03-14T09:08:43;100167.28;;;4.91;68.08
64853;BME280;56050;55.558;-4.644;2023-03-14T09:11:08;100173.06;;;4.96;67.58
64853;BME280;56050;55.558;-4.644;2023-03-14T09:13:34;100181.47;;;4.98;67.41
64853;BME280;56050;55.558;-4.644;2023-03-14T09:16:00;100179.19;;;5.00;67.24
64853;BME280;56050;55.558;-4.644;2023-03-14T09:18:26;100185.72;;;5.03;67.30
64853;BME280;56050;55.558;-4.644;2023-03-14T09:20:51;100183.47;;;5.05;67.31
64853;BME280;56050;55.558;-4.644;2023-03-14T09:23:17;100191.16;;;5.10;67.24
64853;BME280;56050;55.558;-4.644;2023-03-14T09:25:42;100184.38;;;5.16;66.18
64853;BME280;56050;55.558;-4.644;2023-03-14T09:28:08;100201.97;;;5.20;65.75
64853;BME280;56050;55.558;-4.644;2023-03-14T09:30:33;100212.34;;;5.25;65.06
64853;BME280;56050;55.558;-4.644;2023-03-14T09:33:00;100213.88;;;5.26;65.26
64853;BME280;56050;55.558;-4.644;2023-03-14T09:35:25;100222.69;;;5.30;65.18
64853;BME280;56050;55.558;-4.644;2023-03-14T09:37:51;100199.84;;;5.33;65.13
64853;BME280;56050;55.558;-4.644;2023-03-14T09:40:18;100213.22;;;5.37;65.56
64853;BME280;56050;55.558;-4.644;2023-03-14T09:42:47;100204.56;;;5.43;65.68
64853;BME280;56050;55.558;-4.644;2023-03-14T09:45:37;100216.84;;;5.51;65.80
64853;BME280;56050;55.558;-4.644;2023-03-14T09:48:05;100229.16;;;5.59;65.63
64853;BME280;56050;55.558;-4.644;2023-03-14T09:50:40;100225.38;;;5.64;65.47
64853;BME280;56050;55.558;-4.644;2023-03-14T09:53:12;100238.44;;;5.69;64.99
64853;BME280;56050;55.558;-4.644;2023-03-14T09:55:41;100236.53;;;5.69;65.11
64853;BME280;56050;55.558;-4.644;2023-03-14T09:58:17;100236.56;;;5.73;65.14
64853;BME280;56050;55.558;-4.644;2023-03-14T10:00:44;100246.59;;;5.79;65.02
64853;BME280;56050;55.558;-4.644;2023-03-14T10:03:19;100240.91;;;5.84;65.08
64853;BME280;56050;55.558;-4.644;2023-03-14T10:05:46;100241.78;;;5.92;65.18
64853;BME280;56050;55.558;-4.644;2023-03-14T10:08:15;100250.63;;;6.00;65.23
64853;BME280;56050;55.558;-4.644;2023-03-14T10:10:40;100252.63;;;6.06;64.60
64853;BME280;56050;55.558;-4.644;2023-03-14T10:15:35;100245.84;;;6.16;64.94
64853;BME280;56050;55.558;-4.644;2023-03-14T10:18:03;100248.53;;;6.19;64.94
64853;BME280;56050;55.558;-4.644;2023-03-14T10:23:01;100244.00;;;6.23;64.93
64853;BME280;56050;55.558;-4.644;2023-03-14T10:25:30;100251.66;;;6.25;64.94
64853;BME280;56050;55.558;-4.644;2023-03-14T10:27:56;100246.72;;;6.27;64.80
64853;BME280;56050;55.558;-4.644;2023-03-14T10:35:44;100271.25;;;6.36;65.03
64853;BME280;56050;55.558;-4.644;2023-03-14T10:38:15;100268.16;;;6.34;65.17
64853;BME280;56050;55.558;-4.644;2023-03-14T10:40:47;100270.81;;;6.30;65.42
64853;BME280;56050;55.558;-4.644;2023-03-14T10:43:21;100273.13;;;6.32;65.52
64853;BME280;56050;55.558;-4.644;2023-03-14T10:45:57;100284.16;;;6.27;65.44
64853;BME280;56050;55.558;-4.644;2023-03-14T10:48:33;100283.34;;;6.23;65.50
64853;BME280;56050;55.558;-4.644;2023-03-14T10:53:25;100291.75;;;6.21;65.66
64853;BME280;56050;55.558;-4.644;2023-03-14T10:55:51;100290.19;;;6.20;65.13
64853;BME280;56050;55.558;-4.644;2023-03-14T10:58:20;100304.34;;;6.21;65.04
64853;BME280;56050;55.558;-4.644;2023-03-14T11:00:51;100292.09;;;6.20;65.03
64853;BME280;56050;55.558;-4.644;2023-03-14T11:03:18;100297.09;;;6.21;65.40
64853;BME280;56050;55.558;-4.644;2023-03-14T11:06:06;100307.03;;;6.24;65.34
64853;BME280;56050;55.558;-4.644;2023-03-14T11:08:54;100297.88;;;6.25;65.50
64853;BME280;56050;55.558;-4.644;2023-03-14T11:11:24;100293.75;;;6.31;65.57
64853;BME280;56050;55.558;-4.644;2023-03-14T11:25:06;100303.91;;;6.56;65.49
64853;BME280;56050;55.558;-4.644;2023-03-14T11:28:17;100299.72;;;6.58;65.46
64853;BME280;56050;55.558;-4.644;2023-03-14T11:31:42;100299.00;;;6.61;65.33
64853;BME280;56050;55.558;-4.644;2023-03-14T11:37:02;100315.50;;;6.70;64.92
64853;BME280;56050;55.558;-4.644;2023-03-14T11:39:38;100312.88;;;6.77;65.02
64853;BME280;56050;55.558;-4.644;2023-03-14T11:42:11;100307.63;;;6.88;65.12
64853;BME280;56050;55.558;-4.644;2023-03-14T11:44:38;100310.41;;;7.02;65.46
64853;BME280;56050;55.558;-4.644;2023-03-14T11:50:05;100299.47;;;7.25;64.84
64853;BME280;56050;55.558;-4.644;2023-03-14T11:52:34;100296.47;;;7.33;63.91
64853;BME280;56050;55.558;-4.644;2023-03-14T11:57:41;100306.09;;;7.45;63.74
64853;BME280;56050;55.558;-4.644;2023-03-14T12:00:14;100320.28;;;7.49;63.10
64853;BME280;56050;55.558;-4.644;2023-03-14T12:03:11;100338.66;;;7.47;62.84
64853;BME280;56050;55.558;-4.644;2023-03-14T12:06:02;100346.94;;;7.28;60.54
64853;BME280;56050;55.558;-4.644;2023-03-14T12:11:00;100350.81;;;6.42;61.91
64853;BME280;56050;55.558;-4.644;2023-03-14T12:13:29;100356.88;;;6.06;62.79
64853;BME280;56050;55.558;-4.644;2023-03-14T12:15:59;100356.75;;;5.69;63.76
64853;BME280;56050;55.558;-4.644;2023-03-14T12:18:36;100354.53;;;5.45;65.47
64853;BME280;56050;55.558;-4.644;2023-03-14T12:21:09;100380.31;;;5.34;66.01
64853;BME280;56050;55.558;-4.644;2023-03-14T12:28:37;100393.72;;;4.69;66.55
64853;BME280;56050;55.558;-4.644;2023-03-14T12:41:51;100408.00;;;4.58;67.95
64853;BME280;56050;55.558;-4.644;2023-03-14T12:46:58;100418.34;;;4.82;67.61
64853;BME280;56050;55.558;-4.644;2023-03-14T12:49:29;100428.81;;;4.91;67.46
64853;BME280;56050;55.558;-4.644;2023-03-14T12:52:00;100424.72;;;4.97;67.48
64853;BME280;56050;55.558;-4.644;2023-03-14T12:57:20;100422.56;;;5.06;67.21
64853;BME280;56050;55.558;-4.644;2023-03-14T12:59:55;100426.88;;;5.10;67.11
64853;BME280;56050;55.558;-4.644;2023-03-14T13:02:22;100423.00;;;5.08;67.27
64853;BME280;56050;55.558;-4.644;2023-03-14T13:04:59;100430.59;;;5.06;67.15
64853;BME280;56050;55.558;-4.644;2023-03-14T13:12:26;100447.31;;;5.03;67.29
64853;BME280;56050;55.558;-4.644;2023-03-14T13:14:53;100454.91;;;5.01;67.54
64853;BME280;56050;55.558;-4.644;2023-03-14T13:17:33;100458.28;;;4.98;67.54
64853;BME280;56050;55.558;-4.644;2023-03-14T13:20:03;100457.88;;;4.96;67.58
64853;BME280;56050;55.558;-4.644;2023-03-14T13:22:35;100472.41;;;4.98;67.58
64853;BME280;56050;55.558;-4.644;2023-03-14T13:25:09;100462.13;;;5.00;67.74
64853;BME280;56050;55.558;-4.644;2023-03-14T13:27:34;100465.66;;;5.04;67.70
64853;BME280;56050;55.558;-4.644;2023-03-14T13:30:27;100468.66;;;5.03;67.48
64853;BME280;56050;55.558;-4.644;2023-03-14T13:32:53;100470.59;;;5.02;67.65
64853;BME280;56050;55.558;-4.644;2023-03-14T13:35:27;100474.00;;;5.03;67.69
64853;BME280;56050;55.558;-4.644;2023-03-14T13:37:56;100484.69;;;5.03;67.72
64853;BME280;56050;55.558;-4.644;2023-03-14T13:40:30;100487.78;;;5.05;67.70
64853;BME280;56050;55.558;-4.644;2023-03-14T13:43:02;100486.31;;;5.07;67.79
64853;BME280;56050;55.558;-4.644;2023-03-14T13:45:27;100501.25;;;5.12;67.76
64853;BME280;56050;55.558;-4.644;2023-03-14T13:47:53;100498.16;;;5.10;67.76
64853;BME280;56050;55.558;-4.644;2023-03-14T13:50:18;100498.88;;;5.07;67.73
64853;BME280;56050;55.558;-4.644;2023-03-14T13:52:44;100512.22;;;5.07;67.77
64853;BME280;56050;55.558;-4.644;2023-03-14T13:55:16;100521.34;;;5.06;67.59
64853;BME280;56050;55.558;-4.644;2023-03-14T13:57:48;100525.19;;;5.08;67.92
64853;BME280;56050;55.558;-4.644;2023-03-14T14:00:25;100518.81;;;5.13;67.83
64853;BME280;56050;55.558;-4.644;2023-03-14T14:02:56;100523.78;;;5.14;67.68